createdAt,value
2022-08-31T00:02:40.114Z,102271.81
2022-08-31T00:05:07.831Z,102275.59
2022-08-31T00:07:35.195Z,102271.31
2022-08-31T00:10:11.729Z,102274.56
2022-08-31T00:12:38.226Z,102285.09
2022-08-31T00:15:06.087Z,102281.00
2022-08-31T00:17:32.573Z,102272.78
2022-08-31T00:19:59.079Z,102287.97
2022-08-31T00:22:25.603Z,102272.47
2022-08-31T00:24:52.079Z,102276.16
2022-08-31T00:27:18.673Z,102270.16
2022-08-31T00:29:45.200Z,102280.84
2022-08-31T00:32:11.711Z,102278.13
2022-08-31T00:34:39.196Z,102277.63
2022-08-31T00:37:06.085Z,102280.53
2022-08-31T00:39:32.667Z,102274.81
2022-08-31T00:41:59.321Z,102274.31
2022-08-31T00:44:25.834Z,102267.50
2022-08-31T00:46:52.378Z,102276.81
2022-08-31T00:49:22.261Z,102275.63
2022-08-31T00:52:09.601Z,102271.81
2022-08-31T00:54:41.430Z,102270.63
2022-08-31T00:57:09.427Z,102272.38
2022-08-31T00:59:37.216Z,102273.59
2022-08-31T01:02:04.619Z,102280.25
2022-08-31T01:04:31.326Z,102279.31
2022-08-31T01:06:59.014Z,102275.00
2022-08-31T01:09:27.084Z,102272.59
2022-08-31T01:11:54.161Z,102271.59
2022-08-31T01:14:21.079Z,102270.00
2022-08-31T01:16:50.421Z,102267.22
2022-08-31T01:19:39.736Z,102265.06
2022-08-31T01:22:11.662Z,102278.72
2022-08-31T01:24:40.353Z,102275.13
2022-08-31T01:27:07.893Z,102274.34
2022-08-31T01:29:35.757Z,102271.00
2022-08-31T01:32:02.717Z,102264.59
2022-08-31T01:34:29.262Z,102265.84
2022-08-31T01:36:55.836Z,102265.56
2022-08-31T01:39:22.586Z,102259.69
2022-08-31T01:41:49.356Z,102255.59
2022-08-31T01:44:18.932Z,102259.22
2022-08-31T01:46:46.321Z,102258.91
2022-08-31T01:49:14.241Z,102261.25
2022-08-31T01:51:41.038Z,102266.28
2022-08-31T01:54:07.738Z,102261.19
2022-08-31T01:56:40.529Z,102257.59
2022-08-31T01:59:08.706Z,102264.41
2022-08-31T02:01:38.601Z,102264.63
2022-08-31T02:04:07.014Z,102258.34
2022-08-31T02:06:33.858Z,102263.81
2022-08-31T02:09:01.935Z,102260.94
2022-08-31T02:11:28.469Z,102260.88
2022-08-31T02:13:55.033Z,102268.66
2022-08-31T02:16:21.692Z,102264.59
2022-08-31T02:18:48.233Z,102262.06
2022-08-31T02:21:14.758Z,102268.97
2022-08-31T02:23:42.249Z,102266.53
2022-08-31T02:26:09.235Z,102268.63
2022-08-31T02:28:36.154Z,102267.56
2022-08-31T02:31:02.750Z,102269.59
2022-08-31T02:33:29.600Z,102265.38
2022-08-31T02:35:58.063Z,102262.13
2022-08-31T02:38:24.588Z,102261.41
2022-08-31T02:40:53.483Z,102261.03
2022-08-31T02:43:24.963Z,102263.81
2022-08-31T02:45:53.722Z,102253.75
2022-08-31T02:48:20.882Z,102265.03
2022-08-31T02:50:49.500Z,102260.09
2022-08-31T02:53:17.936Z,102261.94
2022-08-31T02:55:44.585Z,102264.38
2022-08-31T02:58:11.934Z,102260.94
2022-08-31T03:00:39.249Z,102263.31
2022-08-31T03:03:06.097Z,102264.50
2022-08-31T03:05:32.749Z,102259.75
2022-08-31T03:07:59.273Z,102261.09
2022-08-31T03:10:26.253Z,102266.13
2022-08-31T03:12:53.707Z,102257.78
2022-08-31T03:15:22.078Z,102255.94
2022-08-31T03:17:48.897Z,102254.59
2022-08-31T03:20:16.238Z,102250.84
2022-08-31T03:22:45.538Z,102246.22
2022-08-31T03:25:12.518Z,102244.22
2022-08-31T03:27:39.467Z,102251.41
2022-08-31T03:30:11.911Z,102255.81
2022-08-31T03:32:39.243Z,102243.91
2022-08-31T03:35:06.864Z,102256.09
2022-08-31T03:37:33.931Z,102250.59
2022-08-31T03:40:00.773Z,102255.53
2022-08-31T03:42:27.954Z,102253.88
2022-08-31T03:44:58.527Z,102257.00
2022-08-31T03:47:25.097Z,102266.97
2022-08-31T03:49:55.185Z,102266.25
2022-08-31T03:52:21.902Z,102263.81
2022-08-31T03:54:48.526Z,102266.03
2022-08-31T03:57:14.990Z,102265.66
2022-08-31T03:59:41.505Z,102266.69
2022-08-31T04:02:08.063Z,102264.94
2022-08-31T04:04:35.067Z,102264.16
2022-08-31T04:07:01.644Z,102263.63
2022-08-31T04:09:28.327Z,102265.22
2022-08-31T04:11:54.909Z,102257.19
2022-08-31T04:14:21.499Z,102263.13
2022-08-31T04:16:47.991Z,102261.69
2022-08-31T04:19:16.160Z,102265.78
2022-08-31T04:21:44.281Z,102278.09
2022-08-31T04:24:11.992Z,102268.41
2022-08-31T04:26:40.527Z,102264.34
2022-08-31T04:29:12.379Z,102269.63
2022-08-31T04:31:39.731Z,102275.13
2022-08-31T04:34:06.272Z,102270.56
2022-08-31T04:36:32.939Z,102272.81
2022-08-31T04:39:01.726Z,102274.25
2022-08-31T04:41:30.318Z,102276.88
2022-08-31T04:43:58.855Z,102278.34
2022-08-31T04:46:26.321Z,102273.47
2022-08-31T04:48:53.307Z,102276.97
2022-08-31T04:51:25.886Z,102275.13
2022-08-31T04:53:53.202Z,102277.88
2022-08-31T04:56:22.547Z,102285.31
2022-08-31T04:58:52.774Z,102285.66
2022-08-31T05:01:22.267Z,102290.09
2022-08-31T05:03:53.175Z,102287.47
2022-08-31T05:06:22.582Z,102284.50
2022-08-31T05:08:53.482Z,102286.41
2022-08-31T05:11:24.837Z,102288.19
2022-08-31T05:13:52.756Z,102287.50
2022-08-31T05:16:20.382Z,102295.38
2022-08-31T05:18:49.882Z,102292.97
2022-08-31T05:21:25.653Z,102290.81
2022-08-31T05:23:52.158Z,102293.00
2022-08-31T05:26:24.773Z,102282.66
2022-08-31T05:28:53.885Z,102289.03
2022-08-31T05:31:21.562Z,102289.16
2022-08-31T05:33:48.234Z,102294.34
2022-08-31T05:36:14.886Z,102289.28
2022-08-31T05:38:41.906Z,102291.84
2022-08-31T05:41:10.132Z,102299.09
2022-08-31T05:43:38.226Z,102298.22
2022-08-31T05:46:10.618Z,102298.06
2022-08-31T05:48:38.045Z,102298.78
2022-08-31T05:51:11.369Z,102299.19
2022-08-31T05:53:38.482Z,102291.63
2022-08-31T05:56:11.277Z,102296.41
2022-08-31T05:58:39.502Z,102299.72
2022-08-31T06:01:14.848Z,102300.94
2022-08-31T06:03:42.248Z,102297.47
2022-08-31T06:06:12.234Z,102299.44
2022-08-31T06:08:39.598Z,102304.66
2022-08-31T06:11:07.137Z,102301.28
2022-08-31T06:13:33.802Z,102304.16
2022-08-31T06:16:04.103Z,102302.56
2022-08-31T06:18:30.985Z,102300.81
2022-08-31T06:21:02.687Z,102305.06
2022-08-31T06:23:30.104Z,102306.56
2022-08-31T06:26:05.590Z,102309.31
2022-08-31T06:28:32.802Z,102312.41
2022-08-31T06:31:01.159Z,102321.41
2022-08-31T06:33:29.287Z,102318.75
2022-08-31T06:35:56.455Z,102314.66
2022-08-31T06:38:24.279Z,102312.09
2022-08-31T06:40:50.910Z,102307.03
2022-08-31T06:43:17.676Z,102318.31
2022-08-31T06:45:44.364Z,102306.56
2022-08-31T06:48:10.925Z,102313.59
2022-08-31T06:50:40.351Z,102314.00
2022-08-31T06:53:07.157Z,102309.00
2022-08-31T06:55:34.722Z,102306.53
2022-08-31T06:58:01.294Z,102310.69
2022-08-31T07:00:27.799Z,102315.91
2022-08-31T07:02:57.660Z,102311.69
2022-08-31T07:05:24.904Z,102318.97
2022-08-31T07:07:51.654Z,102309.50
2022-08-31T07:10:19.423Z,102316.75
2022-08-31T07:12:45.935Z,102316.81
2022-08-31T07:15:12.414Z,102315.94
2022-08-31T07:17:39.001Z,102309.75
2022-08-31T07:20:05.942Z,102301.13
2022-08-31T07:22:32.463Z,102315.31
2022-08-31T07:24:58.980Z,102316.19
2022-08-31T07:27:25.546Z,102303.06
2022-08-31T07:29:52.022Z,102304.91
2022-08-31T07:32:18.538Z,102312.94
2022-08-31T07:34:45.167Z,102315.59
2022-08-31T07:37:30.233Z,102312.94
2022-08-31T07:40:15.371Z,102308.53
2022-08-31T07:42:43.920Z,102302.34
2022-08-31T07:45:29.079Z,102306.66
2022-08-31T07:47:59.892Z,102305.84
2022-08-31T07:50:27.449Z,102309.28
2022-08-31T07:52:55.708Z,102321.69
2022-08-31T07:55:24.009Z,102317.25
2022-08-31T07:57:53.401Z,102311.56
2022-08-31T08:00:26.512Z,102318.66
2022-08-31T08:02:54.039Z,102314.88
2022-08-31T08:05:27.042Z,102310.16
2022-08-31T08:07:58.435Z,102308.34
2022-08-31T08:10:26.338Z,102311.53
2022-08-31T08:13:04.952Z,102315.00
2022-08-31T08:15:35.614Z,102307.94
2022-08-31T08:18:03.563Z,102308.06
2022-08-31T08:20:35.345Z,102309.66
2022-08-31T08:23:16.376Z,102311.78
2022-08-31T08:25:46.373Z,102319.78
2022-08-31T08:31:05.107Z,102312.75
2022-08-31T08:33:33.490Z,102306.00
2022-08-31T08:36:03.197Z,102305.94
2022-08-31T08:38:30.968Z,102304.91
2022-08-31T08:41:02.449Z,102312.56
2022-08-31T08:43:37.414Z,102314.09
2022-08-31T08:46:20.025Z,102327.75
2022-08-31T08:48:55.510Z,102326.81
2022-08-31T08:51:25.638Z,102327.75
2022-08-31T08:53:59.926Z,102326.00
2022-08-31T08:56:33.406Z,102318.06
2022-08-31T08:59:00.302Z,102323.47
2022-08-31T09:01:29.687Z,102329.66
2022-08-31T09:04:12.751Z,102329.63
2022-08-31T09:06:54.887Z,102330.34
2022-08-31T09:09:38.048Z,102326.75
2022-08-31T09:12:23.130Z,102328.41
2022-08-31T09:15:11.361Z,102321.91
2022-08-31T09:18:09.323Z,102313.59
2022-08-31T09:20:35.914Z,102313.41
2022-08-31T09:23:07.021Z,102306.47
2022-08-31T09:25:52.174Z,102311.19
2022-08-31T09:28:34.110Z,102310.78
2022-08-31T09:31:00.652Z,102306.03
2022-08-31T09:33:30.037Z,102310.44
2022-08-31T09:36:15.530Z,102302.53
2022-08-31T09:38:44.092Z,102306.06
2022-08-31T09:41:33.366Z,102312.75
2022-08-31T09:44:45.121Z,102310.56
2022-08-31T09:47:48.024Z,102307.63
2022-08-31T09:50:44.957Z,102301.22
2022-08-31T09:53:40.838Z,102305.34
2022-08-31T09:56:22.177Z,102300.72
2022-08-31T09:58:54.354Z,102302.66
2022-08-31T10:01:20.824Z,102302.69
2022-08-31T10:03:48.387Z,102300.75
2022-08-31T10:07:06.917Z,102299.25
2022-08-31T10:09:57.930Z,102308.78
2022-08-31T10:12:43.887Z,102303.16
2022-08-31T10:15:30.467Z,102296.63
2022-08-31T10:18:13.946Z,102299.31
2022-08-31T10:20:48.368Z,102296.44
2022-08-31T10:23:21.625Z,102296.72
2022-08-31T10:25:54.658Z,102295.03
2022-08-31T10:28:39.910Z,102293.84
2022-08-31T10:31:10.569Z,102289.63
2022-08-31T10:34:02.991Z,102284.59
2022-08-31T10:36:36.781Z,102282.97
2022-08-31T10:39:25.309Z,102281.44
2022-08-31T10:41:52.190Z,102289.31
2022-08-31T10:44:42.294Z,102285.28
2022-08-31T10:47:32.527Z,102286.22
2022-08-31T10:50:03.219Z,102279.03
2022-08-31T10:52:34.169Z,102277.69
2022-08-31T10:55:19.624Z,102279.50
2022-08-31T10:57:58.696Z,102279.63
2022-08-31T11:00:42.378Z,102284.31
2022-08-31T11:03:22.598Z,102277.34
2022-08-31T11:05:59.169Z,102286.56
2022-08-31T11:09:01.657Z,102282.19
2022-08-31T11:14:22.641Z,102282.41
2022-08-31T11:17:02.761Z,102272.59
2022-08-31T11:19:52.512Z,102268.28
2022-08-31T11:22:44.042Z,102270.63
2022-08-31T11:25:15.127Z,102275.25
2022-08-31T11:27:44.236Z,102259.19
2022-08-31T11:30:27.994Z,102263.22
2022-08-31T11:32:57.373Z,102265.31
2022-08-31T11:36:06.732Z,102274.19
2022-08-31T11:38:40.834Z,102270.03
2022-08-31T11:41:11.069Z,102259.41
2022-08-31T11:43:45.548Z,102270.44
2022-08-31T11:46:26.973Z,102266.91
2022-08-31T11:48:54.059Z,102257.50
2022-08-31T11:51:42.592Z,102260.19
2022-08-31T11:54:25.584Z,102254.25
2022-08-31T11:56:56.262Z,102248.78
2022-08-31T11:59:34.199Z,102244.69
2022-08-31T12:02:21.646Z,102246.91
2022-08-31T12:05:02.653Z,102255.63
2022-08-31T12:07:36.020Z,102243.41
2022-08-31T12:10:08.139Z,102240.16
2022-08-31T12:12:56.385Z,102244.16
2022-08-31T12:15:37.400Z,102250.06
2022-08-31T12:18:16.997Z,102236.88
2022-08-31T12:21:10.012Z,102247.06
2022-08-31T12:23:58.354Z,102232.25
2022-08-31T12:26:49.331Z,102232.47
2022-08-31T12:29:25.293Z,102240.34
2022-08-31T12:32:12.109Z,102231.50
2022-08-31T12:34:50.061Z,102233.38
2022-08-31T12:37:24.515Z,102238.00
2022-08-31T12:40:13.997Z,102239.50
2022-08-31T12:42:55.861Z,102238.56
2022-08-31T12:45:53.371Z,102239.94
2022-08-31T12:48:30.562Z,102239.69
2022-08-31T12:51:04.653Z,102232.81
2022-08-31T12:53:45.990Z,102236.50
2022-08-31T12:56:36.607Z,102238.53
2022-08-31T12:59:16.465Z,102232.50
2022-08-31T13:01:46.622Z,102234.41
2022-08-31T13:04:15.925Z,102236.50
2022-08-31T13:06:45.108Z,102229.50
2022-08-31T13:09:30.518Z,102232.28
2022-08-31T13:11:59.833Z,102225.72
2022-08-31T13:14:29.365Z,102229.34
2022-08-31T13:17:04.293Z,102213.50
2022-08-31T13:19:33.585Z,102208.41
2022-08-31T13:22:05.195Z,102207.16
2022-08-31T13:24:37.790Z,102213.00
2022-08-31T13:27:05.565Z,102215.78
2022-08-31T13:29:41.113Z,102218.09
2022-08-31T13:32:08.004Z,102219.88
2022-08-31T13:34:42.175Z,102209.59
2022-08-31T13:37:18.103Z,102202.31
2022-08-31T13:39:46.139Z,102203.19
2022-08-31T13:42:31.918Z,102206.41
2022-08-31T13:45:01.509Z,102199.47
2022-08-31T13:47:37.953Z,102191.75
2022-08-31T13:50:19.635Z,102197.66
2022-08-31T13:53:16.048Z,102193.53
2022-08-31T13:55:43.674Z,102197.88
2022-08-31T13:58:31.224Z,102198.00
2022-08-31T14:01:32.843Z,102193.97
2022-08-31T14:04:00.034Z,102193.25
2022-08-31T14:06:33.894Z,102196.88
2022-08-31T14:09:05.266Z,102206.28
2022-08-31T14:11:33.788Z,102200.84
2022-08-31T14:14:07.353Z,102190.06
2022-08-31T14:16:43.415Z,102187.66
2022-08-31T14:19:11.023Z,102197.84
2022-08-31T14:21:42.257Z,102189.41
2022-08-31T14:24:12.137Z,102195.28
2022-08-31T14:26:41.828Z,102191.25
2022-08-31T14:29:12.141Z,102183.94
2022-08-31T14:31:57.947Z,102192.25
2022-08-31T14:34:32.129Z,102193.22
2022-08-31T14:37:06.879Z,102184.53
2022-08-31T14:39:37.766Z,102189.47
2022-08-31T14:42:11.771Z,102188.88
2022-08-31T14:44:43.352Z,102192.00
2022-08-31T14:47:11.668Z,102188.91
2022-08-31T14:49:39.913Z,102194.28
2022-08-31T14:52:07.356Z,102190.00
2022-08-31T14:54:37.766Z,102184.53
2022-08-31T14:57:17.305Z,102191.06
2022-08-31T14:59:46.044Z,102187.53
2022-08-31T15:02:16.419Z,102182.09
2022-08-31T15:04:45.744Z,102180.09
2022-08-31T15:07:13.925Z,102181.66
2022-08-31T15:09:41.396Z,102180.84
2022-08-31T15:12:08.652Z,102180.06
2022-08-31T15:14:37.023Z,102184.31
2022-08-31T15:17:13.128Z,102189.66
2022-08-31T15:19:47.951Z,102179.09
2022-08-31T15:22:15.973Z,102190.47
2022-08-31T15:24:44.852Z,102185.38
2022-08-31T15:27:13.608Z,102183.94
2022-08-31T15:29:41.239Z,102180.31
2022-08-31T15:32:10.361Z,102190.47
2022-08-31T15:34:38.175Z,102182.78
2022-08-31T15:37:06.985Z,102182.41
2022-08-31T15:39:41.263Z,102185.59
2022-08-31T15:42:11.293Z,102180.94
2022-08-31T15:44:39.882Z,102191.66
2022-08-31T15:47:26.524Z,102184.09
2022-08-31T15:49:53.017Z,102186.25
2022-08-31T15:52:20.020Z,102182.09
2022-08-31T15:54:48.174Z,102178.91
2022-08-31T15:57:16.077Z,102182.47
2022-08-31T15:59:43.248Z,102182.91
2022-08-31T16:02:13.319Z,102185.44
2022-08-31T16:04:42.899Z,102186.19
2022-08-31T16:07:11.125Z,102177.97
2022-08-31T16:12:05.414Z,102175.34
2022-08-31T16:14:32.002Z,102179.09
2022-08-31T16:16:59.833Z,102169.22
2022-08-31T16:19:34.982Z,102166.72
2022-08-31T16:22:03.014Z,102162.16
2022-08-31T16:24:36.003Z,102163.19
2022-08-31T16:27:06.368Z,102169.22
2022-08-31T16:29:33.130Z,102170.06
2022-08-31T16:32:00.371Z,102163.53
2022-08-31T16:34:27.103Z,102163.03
2022-08-31T16:36:53.687Z,102162.09
2022-08-31T16:39:20.747Z,102156.97
2022-08-31T16:41:49.330Z,102156.13
2022-08-31T16:44:20.144Z,102158.50
2022-08-31T16:46:49.547Z,102158.81
2022-08-31T16:49:46.920Z,102156.03
2022-08-31T16:52:18.298Z,102156.63
2022-08-31T16:54:48.417Z,102151.75
2022-08-31T16:57:17.906Z,102157.00
2022-08-31T16:59:44.802Z,102149.28
2022-08-31T17:02:13.228Z,102154.50
2022-08-31T17:04:52.134Z,102148.34
2022-08-31T17:07:19.707Z,102153.84
2022-08-31T17:09:46.422Z,102155.44
2022-08-31T17:12:19.340Z,102152.78
2022-08-31T17:14:48.338Z,102157.31
2022-08-31T17:17:17.443Z,102163.56
2022-08-31T17:19:45.102Z,102163.50
2022-08-31T17:22:16.933Z,102161.66
2022-08-31T17:24:46.516Z,102161.72
2022-08-31T17:27:16.904Z,102163.63
2022-08-31T17:29:46.357Z,102164.53
2022-08-31T17:32:14.910Z,102166.34
2022-08-31T17:34:43.146Z,102165.34
2022-08-31T17:37:15.217Z,102170.88
2022-08-31T17:39:42.885Z,102174.44
2022-08-31T17:42:09.472Z,102176.19
2022-08-31T17:44:37.740Z,102172.69
2022-08-31T17:47:05.373Z,102166.50
2022-08-31T17:49:37.835Z,102175.41
2022-08-31T17:52:07.964Z,102166.63
2022-08-31T17:54:36.858Z,102182.47
2022-08-31T17:57:05.629Z,102185.13
2022-08-31T17:59:43.874Z,102173.72
2022-08-31T18:02:17.628Z,102183.38
2022-08-31T18:04:44.417Z,102182.53
2022-08-31T18:07:11.702Z,102182.53
2022-08-31T18:09:40.955Z,102183.31
2022-08-31T18:12:08.305Z,102184.22
2022-08-31T18:14:36.261Z,102172.81
2022-08-31T18:17:06.011Z,102179.88
2022-08-31T18:19:33.481Z,102179.88
2022-08-31T18:22:01.160Z,102182.50
2022-08-31T18:24:28.330Z,102180.72
2022-08-31T18:26:56.669Z,102189.53
2022-08-31T18:29:25.054Z,102193.97
2022-08-31T18:31:54.078Z,102196.59
2022-08-31T18:34:23.301Z,102198.34
2022-08-31T18:36:51.727Z,102203.63
2022-08-31T18:39:40.741Z,102209.78
2022-08-31T18:42:28.285Z,102213.25
2022-08-31T18:45:14.301Z,102215.91
2022-08-31T18:47:41.450Z,102214.09
2022-08-31T18:50:08.645Z,102213.06
2022-08-31T18:52:40.408Z,102218.50
2022-08-31T18:55:15.882Z,102219.41
2022-08-31T18:57:48.497Z,102216.72
2022-08-31T19:00:17.475Z,102210.50
2022-08-31T19:02:45.106Z,102220.16
2022-08-31T19:05:13.709Z,102221.03
2022-08-31T19:07:41.408Z,102221.06
2022-08-31T19:10:12.894Z,102214.81
2022-08-31T19:12:42.672Z,102213.88
2022-08-31T19:15:11.218Z,102220.13
2022-08-31T19:17:40.080Z,102218.22
2022-08-31T19:20:10.308Z,102222.69
2022-08-31T19:22:37.267Z,102221.81
2022-08-31T19:25:04.203Z,102216.56
2022-08-31T19:27:31.194Z,102231.38
2022-08-31T19:29:58.391Z,102231.19
2022-08-31T19:32:25.474Z,102222.59
2022-08-31T19:34:52.442Z,102233.09
2022-08-31T19:37:19.225Z,102226.84
2022-08-31T19:39:46.235Z,102220.63
2022-08-31T19:42:14.229Z,102223.19
2022-08-31T19:47:30.870Z,102228.34
2022-08-31T19:49:57.645Z,102224.06
2022-08-31T19:52:26.080Z,102227.47
2022-08-31T19:54:53.269Z,102233.59
2022-08-31T19:57:22.135Z,102224.75
2022-08-31T19:59:50.081Z,102239.66
2022-08-31T20:02:17.266Z,102224.47
2022-08-31T20:04:45.710Z,102240.41
2022-08-31T20:07:13.603Z,102239.53
2022-08-31T20:09:40.725Z,102236.81
2022-08-31T20:12:07.472Z,102235.72
2022-08-31T20:14:35.306Z,102239.28
2022-08-31T20:17:02.084Z,102243.69
2022-08-31T20:19:31.496Z,102244.31
2022-08-31T20:22:08.364Z,102251.41
2022-08-31T20:24:44.007Z,102242.38
2022-08-31T20:27:13.850Z,102233.47
2022-08-31T20:29:41.402Z,102238.22
2022-08-31T20:32:08.464Z,102245.22
2022-08-31T20:34:35.890Z,102241.34
2022-08-31T20:37:02.726Z,102243.31
2022-08-31T20:39:30.745Z,102235.31
2022-08-31T20:41:59.299Z,102241.03
2022-08-31T20:44:27.304Z,102246.59
2022-08-31T20:47:14.882Z,102241.25
2022-08-31T20:49:44.173Z,102239.63
2022-08-31T20:52:12.778Z,102243.97
2022-08-31T20:54:43.015Z,102240.28
2022-08-31T20:57:11.774Z,102244.09
2022-08-31T20:59:38.841Z,102236.63
2022-08-31T21:02:06.730Z,102243.00
2022-08-31T21:04:41.222Z,102237.50
2022-08-31T21:07:08.808Z,102230.50
2022-08-31T21:09:35.330Z,102238.78
2022-08-31T21:12:02.002Z,102244.19
2022-08-31T21:14:29.494Z,102243.34
2022-08-31T21:16:56.650Z,102244.88
2022-08-31T21:19:24.234Z,102250.91
2022-08-31T21:21:56.229Z,102250.03
2022-08-31T21:24:23.175Z,102248.53
2022-08-31T21:26:57.070Z,102251.78
2022-08-31T21:29:23.576Z,102258.13
2022-08-31T21:31:56.976Z,102251.94
2022-08-31T21:34:29.319Z,102258.44
2022-08-31T21:36:55.829Z,102257.38
2022-08-31T21:39:22.889Z,102252.16
2022-08-31T21:41:50.398Z,102255.50
2022-08-31T21:44:20.792Z,102249.31
2022-08-31T21:46:50.670Z,102257.16
2022-08-31T21:49:18.176Z,102257.16
2022-08-31T21:51:48.666Z,102257.72
2022-08-31T21:54:16.904Z,102269.03
2022-08-31T21:56:46.520Z,102260.31
2022-08-31T21:59:14.917Z,102250.72
2022-08-31T22:01:42.214Z,102258.31
2022-08-31T22:04:09.960Z,102252.00
2022-08-31T22:06:37.304Z,102255.41
2022-08-31T22:09:15.785Z,102254.63
2022-08-31T22:11:46.071Z,102253.75
2022-08-31T22:14:16.373Z,102252.97
2022-08-31T22:16:46.488Z,102254.63
2022-08-31T22:19:15.397Z,102257.13
2022-08-31T22:21:45.039Z,102253.63
2022-08-31T22:24:26.712Z,102265.06
2022-08-31T22:27:04.037Z,102261.00
2022-08-31T22:29:32.204Z,102260.78
2022-08-31T22:32:01.439Z,102261.25
2022-08-31T22:34:28.346Z,102262.19
2022-08-31T22:36:56.400Z,102263.34
2022-08-31T22:39:29.100Z,102261.47
2022-08-31T22:41:57.088Z,102257.84
2022-08-31T22:44:26.518Z,102260.16
2022-08-31T22:46:53.757Z,102259.44
2022-08-31T22:49:20.369Z,102263.75
2022-08-31T22:51:48.286Z,102259.88
2022-08-31T22:54:16.664Z,102260.44
2022-08-31T22:56:43.236Z,102256.53
2022-08-31T22:59:12.954Z,102263.97
2022-08-31T23:01:54.895Z,102262.06
2022-08-31T23:04:23.819Z,102271.88
2022-08-31T23:06:51.746Z,102271.13
2022-08-31T23:09:21.263Z,102274.66
2022-08-31T23:11:49.045Z,102272.13
2022-08-31T23:14:15.565Z,102272.41
2022-08-31T23:16:46.816Z,102281.44
2022-08-31T23:19:15.746Z,102279.78
2022-08-31T23:21:52.658Z,102275.19
2022-08-31T23:24:27.239Z,102273.38
2022-08-31T23:26:53.809Z,102270.59
2022-08-31T23:29:21.735Z,102267.19
2022-08-31T23:31:48.734Z,102268.69
2022-08-31T23:34:16.602Z,102260.81
2022-08-31T23:36:47.684Z,102255.25
2022-08-31T23:39:14.783Z,102248.22
2022-08-31T23:41:41.817Z,102255.06
2022-08-31T23:44:09.185Z,102249.94
2022-08-31T23:46:37.674Z,102251.63
2022-08-31T23:49:06.763Z,102250.09
2022-08-31T23:51:33.969Z,102243.72
2022-08-31T23:54:01.457Z,102243.50
2022-08-31T23:56:32.700Z,102247.31
2022-08-31T23:59:01.122Z,102251.72
